createdAt,value
2018-09-29T00:01:41.770Z,9.00
2018-09-29T00:04:11.080Z,9.00
2018-09-29T00:06:40.527Z,8.90
2018-09-29T00:09:11.658Z,8.90
2018-09-29T00:11:41.311Z,8.90
2018-09-29T00:14:11.223Z,8.90
2018-09-29T00:16:40.566Z,8.90
2018-09-29T00:19:09.822Z,8.80
2018-09-29T00:21:39.158Z,8.90
2018-09-29T00:24:08.964Z,8.80
2018-09-29T00:26:38.303Z,8.90
2018-09-29T00:29:08.191Z,8.80
2018-09-29T00:31:37.475Z,8.70
2018-09-29T00:34:06.784Z,8.80
2018-09-29T00:36:36.932Z,8.90
2018-09-29T00:39:07.209Z,8.90
2018-09-29T00:41:36.852Z,8.80
2018-09-29T00:44:06.093Z,8.70
2018-09-29T00:46:35.672Z,8.50
2018-09-29T00:49:05.299Z,8.50
2018-09-29T00:51:34.372Z,8.50
2018-09-29T00:54:03.632Z,8.50
2018-09-29T00:56:33.056Z,8.50
2018-09-29T00:59:02.240Z,8.50
2018-09-29T01:01:32.024Z,8.60
2018-09-29T01:04:01.260Z,8.60
2018-09-29T01:06:30.435Z,8.60
2018-09-29T01:08:59.865Z,8.50
2018-09-29T01:11:29.184Z,8.60
2018-09-29T01:13:58.253Z,8.60
2018-09-29T01:16:27.508Z,8.70
2018-09-29T01:18:56.936Z,8.60
2018-09-29T01:21:26.343Z,8.60
2018-09-29T01:23:55.644Z,8.70
2018-09-29T01:26:25.099Z,8.40
2018-09-29T01:28:54.251Z,8.40
2018-09-29T01:31:23.572Z,8.40
2018-09-29T01:33:53.065Z,8.50
2018-09-29T01:36:22.692Z,8.40
2018-09-29T01:38:52.360Z,8.40
2018-09-29T01:41:21.619Z,8.30
2018-09-29T01:43:50.825Z,8.40
2018-09-29T01:46:19.936Z,8.50
2018-09-29T01:48:49.422Z,8.50
2018-09-29T01:51:18.720Z,8.30
2018-09-29T01:53:48.382Z,8.30
2018-09-29T01:56:17.805Z,8.50
2018-09-29T01:58:47.227Z,8.40
2018-09-29T02:01:16.393Z,8.20
2018-09-29T02:03:45.678Z,8.10
2018-09-29T02:06:15.052Z,8.10
2018-09-29T02:08:44.367Z,8.10
2018-09-29T02:11:13.770Z,8.20
2018-09-29T02:13:43.237Z,8.30
2018-09-29T02:16:12.839Z,8.30
2018-09-29T02:18:42.163Z,8.40
2018-09-29T02:21:11.201Z,8.40
2018-09-29T02:23:40.363Z,8.50
2018-09-29T02:26:09.884Z,8.50
2018-09-29T02:28:39.479Z,8.30
2018-09-29T02:31:08.744Z,8.20
2018-09-29T02:33:38.152Z,8.10
2018-09-29T02:36:07.619Z,8.10
2018-09-29T02:38:36.926Z,8.10
2018-09-29T02:41:06.719Z,8.20
2018-09-29T02:43:35.839Z,8.20
2018-09-29T02:46:05.345Z,8.30
2018-09-29T02:48:34.604Z,8.30
2018-09-29T02:51:03.820Z,8.30
2018-09-29T02:53:33.140Z,8.30
2018-09-29T02:56:02.632Z,8.30
2018-09-29T02:58:31.835Z,8.20
2018-09-29T03:01:01.565Z,8.20
2018-09-29T03:03:31.795Z,8.20
2018-09-29T03:06:01.051Z,8.10
2018-09-29T03:08:30.468Z,8.00
2018-09-29T03:10:59.589Z,7.90
2018-09-29T03:13:28.915Z,7.80
2018-09-29T03:15:58.177Z,7.70
2018-09-29T03:18:27.336Z,7.70
2018-09-29T03:20:56.951Z,7.60
2018-09-29T03:23:26.722Z,7.70
2018-09-29T03:25:56.355Z,7.80
2018-09-29T03:28:25.333Z,7.70
2018-09-29T03:30:54.655Z,7.70
2018-09-29T03:33:23.772Z,7.80
2018-09-29T03:35:53.012Z,7.80
2018-09-29T03:38:22.523Z,7.60
2018-09-29T03:40:51.947Z,7.70
2018-09-29T03:43:21.394Z,7.60
2018-09-29T03:45:50.827Z,7.60
2018-09-29T03:48:20.085Z,7.70
2018-09-29T03:50:49.375Z,7.70
2018-09-29T03:53:18.732Z,7.70
2018-09-29T03:55:48.053Z,7.60
2018-09-29T03:58:17.161Z,7.60
2018-09-29T04:00:46.429Z,7.60
2018-09-29T04:03:16.026Z,7.30
2018-09-29T04:05:45.553Z,7.30
2018-09-29T04:08:15.098Z,7.10
2018-09-29T04:10:44.712Z,7.10
2018-09-29T04:13:13.850Z,7.10
2018-09-29T04:15:42.985Z,7.00
2018-09-29T04:18:12.489Z,6.80
2018-09-29T04:20:41.791Z,6.70
2018-09-29T04:23:10.995Z,6.70
2018-09-29T04:25:40.534Z,6.80
2018-09-29T04:28:09.631Z,6.80
2018-09-29T04:30:39.126Z,6.80
2018-09-29T04:33:08.463Z,6.80
2018-09-29T04:35:38.137Z,6.70
2018-09-29T04:38:07.406Z,6.70
2018-09-29T04:40:37.014Z,6.90
2018-09-29T04:43:06.470Z,6.80
2018-09-29T04:45:35.463Z,6.90
2018-09-29T04:48:05.337Z,6.90
2018-09-29T04:50:34.727Z,6.90
2018-09-29T04:53:03.920Z,6.90
2018-09-29T04:55:34.090Z,6.90
2018-09-29T04:58:03.160Z,6.90
2018-09-29T05:00:32.324Z,7.00
2018-09-29T05:03:01.748Z,7.10
2018-09-29T05:05:30.874Z,7.00
2018-09-29T05:08:00.395Z,7.00
2018-09-29T05:10:29.662Z,7.10
2018-09-29T05:12:58.776Z,7.20
2018-09-29T05:15:28.084Z,7.00
2018-09-29T05:17:57.495Z,7.00
2018-09-29T05:20:26.805Z,7.20
2018-09-29T05:22:56.566Z,7.10
2018-09-29T05:25:26.076Z,7.20
2018-09-29T05:27:55.266Z,7.10
2018-09-29T05:30:24.270Z,7.00
2018-09-29T05:32:53.847Z,7.10
2018-09-29T05:35:22.921Z,7.10
2018-09-29T05:37:52.394Z,7.10
2018-09-29T05:40:21.504Z,7.20
2018-09-29T05:42:50.820Z,7.30
2018-09-29T05:45:20.184Z,7.30
2018-09-29T05:47:49.567Z,7.30
2018-09-29T05:50:19.048Z,7.50
2018-09-29T05:52:48.465Z,7.50
2018-09-29T05:55:17.584Z,7.50
2018-09-29T05:57:46.885Z,7.50
2018-09-29T06:00:16.425Z,7.60
2018-09-29T06:02:45.428Z,7.60
2018-09-29T06:05:14.629Z,7.70
2018-09-29T06:07:43.823Z,7.50
2018-09-29T06:10:13.096Z,7.60
2018-09-29T06:12:42.508Z,7.70
2018-09-29T06:15:11.997Z,7.70
2018-09-29T06:17:41.517Z,7.70
2018-09-29T06:20:11.048Z,7.70
2018-09-29T06:22:40.385Z,7.80
2018-09-29T06:25:09.744Z,7.80
2018-09-29T06:27:39.250Z,7.90
2018-09-29T06:30:08.317Z,8.10
2018-09-29T06:32:37.886Z,8.20
2018-09-29T06:35:07.501Z,8.20
2018-09-29T06:37:36.833Z,8.30
2018-09-29T06:40:06.469Z,8.40
2018-09-29T06:42:35.784Z,8.70
2018-09-29T06:45:05.782Z,8.80
2018-09-29T06:47:35.368Z,9.00
2018-09-29T06:50:04.932Z,9.10
2018-09-29T06:52:34.234Z,9.10
2018-09-29T06:55:03.647Z,8.80
2018-09-29T06:57:33.088Z,8.70
2018-09-29T07:00:02.710Z,8.80
2018-09-29T07:02:32.179Z,8.80
2018-09-29T07:05:02.150Z,9.00
2018-09-29T07:07:31.804Z,9.00
2018-09-29T07:10:01.020Z,9.20
2018-09-29T07:12:30.210Z,9.40
2018-09-29T07:14:59.725Z,9.60
2018-09-29T07:17:29.095Z,9.70
2018-09-29T07:19:58.347Z,9.80
2018-09-29T07:22:27.705Z,9.70
2018-09-29T07:24:56.770Z,9.60
2018-09-29T07:27:26.277Z,9.40
2018-09-29T07:29:55.866Z,9.40
2018-09-29T07:32:25.162Z,9.30
2018-09-29T07:34:54.707Z,9.30
2018-09-29T07:37:24.262Z,9.40
2018-09-29T07:39:53.674Z,9.30
2018-09-29T07:42:23.459Z,9.20
2018-09-29T07:44:53.042Z,9.20
2018-09-29T07:47:22.722Z,8.90
2018-09-29T07:49:52.112Z,9.10
2018-09-29T07:52:21.879Z,9.10
2018-09-29T07:54:51.352Z,9.20
2018-09-29T07:57:20.557Z,9.10
2018-09-29T07:59:50.063Z,8.90
2018-09-29T08:02:19.470Z,8.90
2018-09-29T08:04:48.868Z,8.90
2018-09-29T08:07:18.357Z,8.60
2018-09-29T08:09:47.619Z,8.60
2018-09-29T08:12:16.947Z,8.90
2018-09-29T08:14:47.323Z,8.90
2018-09-29T08:17:16.621Z,9.00
2018-09-29T08:19:45.564Z,9.00
2018-09-29T08:22:14.984Z,9.00
2018-09-29T08:24:44.363Z,8.80
2018-09-29T08:27:13.438Z,8.80
2018-09-29T08:29:42.803Z,9.00
2018-09-29T08:32:12.564Z,9.40
2018-09-29T08:34:42.410Z,9.10
2018-09-29T08:37:12.236Z,9.20
2018-09-29T08:39:41.790Z,9.30
2018-09-29T08:42:11.118Z,9.40
2018-09-29T08:44:40.962Z,9.50
2018-09-29T08:47:10.272Z,9.40
2018-09-29T08:49:39.650Z,9.70
2018-09-29T08:52:09.111Z,10.20
2018-09-29T08:54:39.118Z,10.10
2018-09-29T08:57:08.352Z,9.90
2018-09-29T08:59:38.019Z,10.00
2018-09-29T09:02:07.271Z,10.10
2018-09-29T09:04:36.745Z,10.30
2018-09-29T09:07:07.601Z,10.30
2018-09-29T09:09:37.189Z,10.30
2018-09-29T09:12:06.437Z,10.50
2018-09-29T09:14:35.728Z,10.70
2018-09-29T09:17:04.987Z,10.90
2018-09-29T09:19:34.155Z,11.50
2018-09-29T09:22:03.674Z,12.10
2018-09-29T09:24:33.303Z,11.10
2018-09-29T09:27:02.613Z,11.80
2018-09-29T09:29:32.000Z,12.00
2018-09-29T09:32:02.540Z,11.40
2018-09-29T09:34:33.201Z,11.10
2018-09-29T09:37:03.704Z,10.70
2018-09-29T09:39:34.208Z,11.20
2018-09-29T09:42:06.317Z,12.00
2018-09-29T09:44:37.978Z,12.50
2018-09-29T09:47:07.082Z,12.30
2018-09-29T09:49:36.705Z,11.40
2018-09-29T09:52:05.951Z,10.50
2018-09-29T09:54:35.137Z,10.40
2018-09-29T09:57:04.387Z,10.90
2018-09-29T09:59:34.241Z,12.10
2018-09-29T10:02:09.061Z,13.30
2018-09-29T10:04:39.827Z,13.50
2018-09-29T10:07:14.068Z,13.10
2018-09-29T10:09:44.063Z,12.70
2018-09-29T10:12:13.431Z,12.00
2018-09-29T10:14:43.476Z,12.00
2018-09-29T10:17:12.854Z,12.30
2018-09-29T10:19:43.092Z,12.10
2018-09-29T10:22:12.562Z,10.90
2018-09-29T10:24:41.717Z,10.50
2018-09-29T10:27:11.981Z,10.40
2018-09-29T10:29:42.430Z,10.20
2018-09-29T10:32:14.272Z,10.50
2018-09-29T10:34:43.910Z,10.60
2018-09-29T10:37:14.467Z,10.40
2018-09-29T10:39:43.840Z,11.20
2018-09-29T10:42:13.816Z,12.10
2018-09-29T10:44:43.260Z,13.30
2018-09-29T10:47:12.803Z,13.00
2018-09-29T10:49:42.645Z,13.50
2018-09-29T10:52:12.310Z,13.90
2018-09-29T10:54:41.795Z,14.70
2018-09-29T10:57:11.303Z,14.50
2018-09-29T10:59:40.655Z,13.30
2018-09-29T11:02:10.294Z,12.10
2018-09-29T11:04:40.336Z,11.80
2018-09-29T11:07:10.032Z,12.20
2018-09-29T11:09:39.275Z,12.20
2018-09-29T11:12:08.643Z,12.20
2018-09-29T11:14:37.713Z,11.40
2018-09-29T11:17:06.874Z,11.70
2018-09-29T11:19:36.164Z,13.30
2018-09-29T11:22:05.590Z,13.80
2018-09-29T11:24:35.270Z,13.10
2018-09-29T11:27:04.483Z,12.30
2018-09-29T11:29:35.427Z,12.00
2018-09-29T11:32:04.508Z,12.00
2018-09-29T11:34:33.988Z,11.70
2018-09-29T11:37:03.660Z,11.60
2018-09-29T11:39:33.292Z,11.60
2018-09-29T11:42:03.264Z,11.10
2018-09-29T11:44:32.350Z,10.60
2018-09-29T11:47:02.904Z,10.70
2018-09-29T11:49:32.265Z,10.80
2018-09-29T11:52:02.543Z,10.90
2018-09-29T11:54:34.931Z,10.80
2018-09-29T11:57:04.543Z,10.70
2018-09-29T11:59:34.673Z,10.50
2018-09-29T12:02:04.507Z,10.60
2018-09-29T12:04:37.247Z,10.50
2018-09-29T12:07:06.732Z,10.20
2018-09-29T12:09:41.080Z,10.10
2018-09-29T12:12:11.595Z,10.40
2018-09-29T12:14:41.107Z,10.60
2018-09-29T12:17:10.648Z,10.70
2018-09-29T12:19:42.438Z,10.60
2018-09-29T12:22:13.306Z,10.90
2018-09-29T12:24:42.754Z,10.90
2018-09-29T12:27:12.162Z,10.80
2018-09-29T12:29:41.538Z,11.00
2018-09-29T12:32:11.122Z,11.30
2018-09-29T12:34:40.670Z,11.40
2018-09-29T12:37:10.088Z,11.80
2018-09-29T12:39:39.271Z,12.70
2018-09-29T12:42:08.647Z,12.90
2018-09-29T12:44:37.996Z,12.50
2018-09-29T12:47:07.856Z,13.00
2018-09-29T12:49:37.044Z,12.50
2018-09-29T12:52:15.078Z,11.90
2018-09-29T12:54:44.671Z,11.80
2018-09-29T12:57:14.437Z,11.60
2018-09-29T12:59:44.781Z,11.80
2018-09-29T13:02:14.505Z,12.00
2018-09-29T13:04:43.969Z,12.40
2018-09-29T13:07:13.643Z,12.50
2018-09-29T13:09:43.261Z,12.80
2018-09-29T13:12:13.093Z,12.80
2018-09-29T13:14:42.521Z,12.50
2018-09-29T13:17:15.785Z,12.90
2018-09-29T13:19:45.369Z,12.20
2018-09-29T13:22:14.362Z,12.10
2018-09-29T13:24:43.704Z,12.30
2018-09-29T13:27:13.196Z,12.00
2018-09-29T13:29:42.538Z,11.50
2018-09-29T13:32:12.159Z,12.00
2018-09-29T13:34:41.376Z,12.40
2018-09-29T13:37:10.832Z,12.90
2018-09-29T13:39:39.879Z,11.70
2018-09-29T13:42:09.254Z,11.80
2018-09-29T13:44:38.848Z,11.80
2018-09-29T13:47:08.399Z,12.40
2018-09-29T13:49:37.896Z,12.50
2018-09-29T13:52:09.361Z,12.30
2018-09-29T13:54:38.616Z,12.00
2018-09-29T13:57:07.837Z,11.70
2018-09-29T13:59:37.637Z,11.60
2018-09-29T14:02:07.440Z,11.70
2018-09-29T14:04:36.704Z,11.90
2018-09-29T14:07:06.004Z,11.60
2018-09-29T14:09:35.563Z,11.50
2018-09-29T14:12:05.155Z,11.50
2018-09-29T14:14:34.555Z,11.70
2018-09-29T14:17:03.986Z,12.00
2018-09-29T14:19:34.624Z,12.00
2018-09-29T14:22:03.847Z,12.00
2018-09-29T14:24:33.269Z,11.80
2018-09-29T14:27:02.703Z,11.80
2018-09-29T14:29:31.646Z,11.70
2018-09-29T14:32:00.959Z,11.50
2018-09-29T14:34:30.662Z,11.30
2018-09-29T14:36:59.766Z,11.20
2018-09-29T14:39:28.972Z,11.00
2018-09-29T14:41:58.252Z,10.90
2018-09-29T14:44:27.844Z,10.60
2018-09-29T14:46:57.341Z,10.60
2018-09-29T14:49:26.935Z,10.40
2018-09-29T14:51:56.408Z,10.20
2018-09-29T14:54:26.033Z,10.10
2018-09-29T14:56:55.193Z,9.90
2018-09-29T14:59:24.938Z,9.60
2018-09-29T15:01:54.362Z,9.20
2018-09-29T15:04:23.560Z,9.10
2018-09-29T15:06:52.942Z,8.80
2018-09-29T15:09:22.111Z,8.80
2018-09-29T15:11:52.393Z,8.80
2018-09-29T15:14:21.952Z,8.60
2018-09-29T15:16:51.489Z,8.30
2018-09-29T15:19:20.892Z,8.40
2018-09-29T15:21:50.366Z,8.50
2018-09-29T15:24:20.833Z,8.30
2018-09-29T15:26:50.256Z,8.00
2018-09-29T15:29:19.889Z,8.00
2018-09-29T15:31:49.283Z,7.70
2018-09-29T15:34:18.957Z,7.80
2018-09-29T15:36:48.309Z,7.90
2018-09-29T15:39:17.521Z,8.00
2018-09-29T15:41:46.978Z,8.00
2018-09-29T15:44:16.648Z,7.90
2018-09-29T15:46:46.410Z,7.70
2018-09-29T15:49:15.697Z,7.50
2018-09-29T15:51:45.040Z,7.40
2018-09-29T15:54:14.160Z,7.20
2018-09-29T15:56:43.940Z,7.10
2018-09-29T15:59:13.283Z,7.30
2018-09-29T16:01:42.780Z,7.20
2018-09-29T16:04:12.291Z,7.20
2018-09-29T16:06:41.595Z,7.20
2018-09-29T16:09:11.448Z,7.10
2018-09-29T16:11:41.308Z,7.00
2018-09-29T16:14:10.420Z,6.90
2018-09-29T16:16:39.696Z,6.80
2018-09-29T16:19:09.391Z,6.60
2018-09-29T16:21:39.355Z,6.60
2018-09-29T16:24:09.145Z,6.40
2018-09-29T16:26:40.032Z,6.40
2018-09-29T16:29:09.841Z,6.40
2018-09-29T16:31:42.319Z,6.30
2018-09-29T16:34:13.065Z,6.10
2018-09-29T16:36:47.763Z,5.90
2018-09-29T16:39:17.992Z,5.90
2018-09-29T16:41:47.522Z,5.90
2018-09-29T16:44:16.857Z,5.80
2018-09-29T16:46:46.602Z,5.90
2018-09-29T16:49:15.956Z,5.80
2018-09-29T16:51:45.907Z,5.80
2018-09-29T16:54:15.628Z,5.60
2018-09-29T16:56:45.078Z,5.60
2018-09-29T16:59:14.333Z,5.60
2018-09-29T17:01:43.568Z,5.60
2018-09-29T17:04:12.938Z,5.60
2018-09-29T17:06:42.410Z,5.60
2018-09-29T17:09:12.857Z,5.50
2018-09-29T17:11:42.613Z,5.30
2018-09-29T17:14:12.488Z,5.30
2018-09-29T17:16:42.059Z,5.10
2018-09-29T17:19:11.420Z,4.90
2018-09-29T17:21:41.294Z,4.90
2018-09-29T17:24:10.806Z,4.80
2018-09-29T17:26:40.156Z,4.80
2018-09-29T17:29:09.278Z,4.70
2018-09-29T17:31:38.693Z,4.80
2018-09-29T17:34:07.790Z,4.80
2018-09-29T17:36:37.210Z,4.80
2018-09-29T17:39:08.848Z,4.80
2018-09-29T17:41:38.401Z,4.70
2018-09-29T17:44:08.632Z,4.80
2018-09-29T17:46:38.158Z,4.70
2018-09-29T17:49:07.663Z,4.70
2018-09-29T17:51:37.975Z,4.70
2018-09-29T17:54:07.375Z,4.60
2018-09-29T17:56:36.737Z,4.60
2018-09-29T17:59:06.444Z,4.50
2018-09-29T18:01:36.028Z,4.50
2018-09-29T18:04:05.591Z,4.50
2018-09-29T18:06:36.057Z,4.40
2018-09-29T18:09:07.792Z,4.30
2018-09-29T18:11:37.095Z,4.20
2018-09-29T18:14:06.556Z,4.10
2018-09-29T18:16:36.185Z,4.00
2018-09-29T18:19:05.918Z,4.00
2018-09-29T18:21:35.617Z,4.00
2018-09-29T18:24:04.977Z,3.90
2018-09-29T18:26:34.682Z,4.00
2018-09-29T18:29:04.042Z,3.90
2018-09-29T18:31:33.213Z,3.80
2018-09-29T18:34:02.505Z,3.80
2018-09-29T18:36:31.901Z,3.80
2018-09-29T18:39:00.943Z,3.60
2018-09-29T18:41:30.193Z,3.60
2018-09-29T18:43:59.460Z,3.50
2018-09-29T18:46:28.897Z,3.50
2018-09-29T18:48:58.284Z,3.50
2018-09-29T18:51:28.028Z,3.50
2018-09-29T18:53:57.229Z,3.40
2018-09-29T18:56:26.602Z,3.30
2018-09-29T18:58:56.475Z,3.30
2018-09-29T19:01:26.056Z,3.20
2018-09-29T19:03:55.655Z,3.20
2018-09-29T19:06:25.073Z,3.20
2018-09-29T19:08:54.279Z,3.30
2018-09-29T19:11:23.864Z,3.20
2018-09-29T19:13:53.217Z,3.10
2018-09-29T19:16:23.112Z,3.10
2018-09-29T19:18:52.851Z,3.00
2018-09-29T19:21:22.272Z,3.00
2018-09-29T19:23:51.719Z,2.90
2018-09-29T19:26:21.114Z,2.90
2018-09-29T19:28:50.521Z,2.90
2018-09-29T19:31:19.796Z,2.80
2018-09-29T19:33:49.211Z,2.60
2018-09-29T19:36:18.253Z,2.60
2018-09-29T19:38:47.572Z,2.60
2018-09-29T19:41:16.922Z,2.70
2018-09-29T19:43:46.165Z,2.70
2018-09-29T19:46:15.629Z,2.60
2018-09-29T19:48:44.724Z,2.60
2018-09-29T19:51:14.504Z,2.60
2018-09-29T19:53:43.869Z,2.30
2018-09-29T19:56:13.165Z,2.40
2018-09-29T19:58:42.369Z,2.40
2018-09-29T20:01:11.524Z,2.30
2018-09-29T20:03:40.848Z,2.20
2018-09-29T20:06:10.073Z,2.10
2018-09-29T20:08:39.284Z,2.10
2018-09-29T20:11:08.752Z,2.20
2018-09-29T20:13:38.206Z,2.20
2018-09-29T20:16:07.842Z,2.20
2018-09-29T20:18:37.304Z,2.10
2018-09-29T20:21:07.103Z,2.00
2018-09-29T20:23:36.161Z,2.00
2018-09-29T20:26:05.659Z,2.10
2018-09-29T20:28:35.250Z,2.10
2018-09-29T20:31:05.255Z,2.00
2018-09-29T20:33:34.336Z,1.90
2018-09-29T20:36:03.899Z,1.90
2018-09-29T20:38:33.335Z,1.90
2018-09-29T20:41:02.776Z,1.90
2018-09-29T20:43:32.750Z,1.80
2018-09-29T20:46:02.941Z,1.60
2018-09-29T20:48:32.168Z,1.50
2018-09-29T20:51:01.242Z,1.50
2018-09-29T20:53:31.297Z,1.50
2018-09-29T20:56:00.624Z,1.60
2018-09-29T20:58:29.760Z,1.60
2018-09-29T21:00:59.264Z,1.70
2018-09-29T21:03:28.349Z,1.60
2018-09-29T21:05:57.796Z,1.60
2018-09-29T21:08:27.146Z,1.50
2018-09-29T21:10:56.303Z,1.40
2018-09-29T21:13:25.606Z,1.50
2018-09-29T21:15:54.709Z,1.30
2018-09-29T21:18:24.089Z,1.10
2018-09-29T21:20:53.252Z,1.20
2018-09-29T21:23:22.733Z,1.30
2018-09-29T21:25:52.127Z,1.30
2018-09-29T21:28:21.335Z,1.30
2018-09-29T21:30:50.897Z,1.10
2018-09-29T21:33:19.974Z,1.20
2018-09-29T21:35:49.425Z,1.30
2018-09-29T21:38:18.773Z,1.30
2018-09-29T21:40:48.045Z,1.00
2018-09-29T21:43:16.939Z,0.90
2018-09-29T21:45:46.416Z,0.90
2018-09-29T21:48:16.534Z,0.80
2018-09-29T21:50:46.101Z,1.00
2018-09-29T21:53:15.235Z,0.90
2018-09-29T21:55:44.407Z,1.00
2018-09-29T21:58:13.611Z,0.90
2018-09-29T22:00:44.316Z,0.90
2018-09-29T22:03:14.850Z,0.90
2018-09-29T22:05:44.532Z,0.90
2018-09-29T22:08:14.096Z,1.00
2018-09-29T22:10:43.840Z,0.90
2018-09-29T22:13:13.186Z,0.90
2018-09-29T22:15:42.349Z,0.90
2018-09-29T22:18:11.613Z,0.80
2018-09-29T22:20:41.039Z,0.80
2018-09-29T22:23:10.328Z,0.70
2018-09-29T22:25:40.006Z,0.60
2018-09-29T22:28:09.036Z,0.40
2018-09-29T22:30:38.781Z,0.40
2018-09-29T22:33:08.600Z,0.50
2018-09-29T22:35:37.981Z,0.50
2018-09-29T22:38:08.078Z,0.40
2018-09-29T22:40:37.333Z,0.40
2018-09-29T22:43:06.927Z,0.50
2018-09-29T22:45:36.356Z,0.60
2018-09-29T22:48:05.899Z,0.60
2018-09-29T22:50:36.190Z,0.70
2018-09-29T22:53:05.582Z,0.70
2018-09-29T22:55:34.921Z,0.70
2018-09-29T22:58:04.325Z,0.60
2018-09-29T23:00:33.399Z,0.60
2018-09-29T23:03:02.609Z,0.60
2018-09-29T23:05:31.848Z,0.50
2018-09-29T23:08:02.328Z,0.50
2018-09-29T23:10:31.296Z,0.40
2018-09-29T23:13:00.351Z,0.40
2018-09-29T23:15:29.764Z,0.40
2018-09-29T23:17:59.215Z,0.50
2018-09-29T23:20:28.526Z,0.50
2018-09-29T23:22:58.204Z,0.50
2018-09-29T23:25:27.365Z,0.40
2018-09-29T23:27:56.751Z,0.30
2018-09-29T23:30:26.156Z,0.20
2018-09-29T23:32:55.452Z,0.20
2018-09-29T23:35:24.788Z,0.20
2018-09-29T23:37:53.945Z,0.20
2018-09-29T23:40:23.141Z,0.30
2018-09-29T23:42:52.399Z,0.30
2018-09-29T23:45:21.918Z,0.30
2018-09-29T23:47:51.120Z,0.30
2018-09-29T23:50:20.585Z,0.20
2018-09-29T23:52:50.117Z,0.10
2018-09-29T23:55:19.423Z,0.10
2018-09-29T23:57:48.565Z,0.10
